createdAt,value
2022-12-13T00:01:53.091Z,7.93
2022-12-13T00:04:22.878Z,3.90
2022-12-13T00:06:53.933Z,5.43
2022-12-13T00:09:22.992Z,6.27
2022-12-13T00:11:52.243Z,5.27
2022-12-13T00:14:20.865Z,8.57
2022-12-13T00:16:51.506Z,9.33
2022-12-13T00:19:20.508Z,4.97
2022-12-13T00:21:49.122Z,8.53
2022-12-13T00:24:17.985Z,8.53
2022-12-13T00:26:46.354Z,5.30
2022-12-13T00:29:14.941Z,6.10
2022-12-13T00:34:33.289Z,4.10
2022-12-13T00:37:01.651Z,3.60
2022-12-13T00:39:30.388Z,5.90
2022-12-13T00:41:59.131Z,6.23
2022-12-13T00:44:27.881Z,6.67
2022-12-13T00:46:56.637Z,7.63
2022-12-13T00:49:25.366Z,5.67
2022-12-13T00:51:55.364Z,6.50
2022-12-13T00:54:23.724Z,6.37
2022-12-13T00:56:52.582Z,4.37
2022-12-13T00:59:20.985Z,7.07
2022-12-13T01:01:49.800Z,7.80
2022-12-13T01:04:18.168Z,5.07
2022-12-13T01:06:49.942Z,7.20
2022-12-13T01:09:27.133Z,8.53
2022-12-13T01:11:58.927Z,5.60
2022-12-13T01:14:27.610Z,6.43
2022-12-13T01:16:56.577Z,6.17
2022-12-13T01:19:26.217Z,9.10
2022-12-13T01:21:55.991Z,11.27
2022-12-13T01:24:26.125Z,8.80
2022-12-13T01:26:57.194Z,7.63
2022-12-13T01:29:27.711Z,7.47
2022-12-13T01:31:56.308Z,7.67
2022-12-13T01:34:27.534Z,11.37
2022-12-13T01:36:58.515Z,7.97
2022-12-13T01:39:29.089Z,6.23
2022-12-13T01:42:00.065Z,8.17
2022-12-13T01:45:08.293Z,7.33
2022-12-13T01:47:41.775Z,5.87
2022-12-13T01:50:13.644Z,8.07
2022-12-13T01:52:43.761Z,8.00
2022-12-13T01:55:16.151Z,7.87
2022-12-13T01:57:48.392Z,6.67
2022-12-13T02:00:17.932Z,7.37
2022-12-13T02:02:47.951Z,8.93
2022-12-13T02:05:22.677Z,8.90
2022-12-13T02:07:52.211Z,10.17
2022-12-13T02:10:22.130Z,6.67
2022-12-13T02:12:51.306Z,10.33
2022-12-13T02:15:21.055Z,6.30
2022-12-13T02:18:04.589Z,7.60
2022-12-13T02:20:51.197Z,9.20
2022-12-13T02:23:52.466Z,14.63
2022-12-13T02:26:53.960Z,6.57
2022-12-13T02:29:54.848Z,10.57
2022-12-13T02:32:33.973Z,8.93
2022-12-13T02:35:10.136Z,8.43
2022-12-13T02:37:51.669Z,9.07
2022-12-13T02:40:24.947Z,7.77
2022-12-13T02:43:00.050Z,8.47
2022-12-13T02:45:32.365Z,5.10
2022-12-13T02:48:04.945Z,9.03
2022-12-13T02:50:34.659Z,6.53
2022-12-13T02:53:03.680Z,3.83
2022-12-13T02:55:35.842Z,7.43
2022-12-13T02:58:04.197Z,6.40
2022-12-13T03:00:41.321Z,8.00
2022-12-13T03:03:22.693Z,11.03
2022-12-13T03:06:16.225Z,6.87
2022-12-13T03:08:55.067Z,7.97
2022-12-13T03:11:26.858Z,8.33
2022-12-13T03:13:57.164Z,10.23
2022-12-13T03:16:33.870Z,10.27
2022-12-13T03:19:07.138Z,7.70
2022-12-13T03:21:45.513Z,7.13
2022-12-13T03:24:17.817Z,14.20
2022-12-13T03:26:48.375Z,16.73
2022-12-13T03:29:23.941Z,12.53
2022-12-13T03:31:53.935Z,16.83
2022-12-13T03:34:23.945Z,9.60
2022-12-13T03:36:52.956Z,15.53
2022-12-13T03:39:21.525Z,11.93
2022-12-13T03:41:50.899Z,11.23
2022-12-13T03:44:19.226Z,13.30
2022-12-13T03:46:47.859Z,10.33
2022-12-13T03:49:17.576Z,13.70
2022-12-13T03:51:47.940Z,10.03
2022-12-13T03:54:16.567Z,15.10
2022-12-13T03:56:45.106Z,10.77
2022-12-13T03:59:13.367Z,13.03
2022-12-13T04:01:42.138Z,9.47
2022-12-13T04:04:10.446Z,11.83
2022-12-13T04:06:39.133Z,13.97
2022-12-13T04:09:08.761Z,12.30
2022-12-13T04:11:55.140Z,11.50
2022-12-13T04:14:23.441Z,14.17
2022-12-13T04:16:52.827Z,14.60
2022-12-13T04:19:22.907Z,14.53
2022-12-13T04:21:54.490Z,10.33
2022-12-13T04:24:31.372Z,8.90
2022-12-13T04:27:01.537Z,10.60
2022-12-13T04:29:34.461Z,12.70
2022-12-13T04:32:04.417Z,11.47
2022-12-13T04:34:37.192Z,10.60
2022-12-13T04:37:06.917Z,10.50
2022-12-13T04:39:36.702Z,11.07
2022-12-13T04:42:06.033Z,12.20
2022-12-13T04:44:37.021Z,11.07
2022-12-13T04:47:06.152Z,9.87
2022-12-13T04:49:35.410Z,12.47
2022-12-13T04:52:04.278Z,10.73
2022-12-13T04:54:36.674Z,10.20
2022-12-13T04:57:11.291Z,13.63
2022-12-13T04:59:40.124Z,11.37
2022-12-13T05:02:09.960Z,9.00
2022-12-13T05:04:38.380Z,13.20
2022-12-13T05:07:07.012Z,12.10
2022-12-13T05:09:35.295Z,11.33
2022-12-13T05:12:03.856Z,13.57
2022-12-13T05:14:42.502Z,15.80
2022-12-13T05:17:11.111Z,8.53
2022-12-13T05:19:39.421Z,10.87
2022-12-13T05:22:19.672Z,10.73
2022-12-13T05:24:49.991Z,7.20
2022-12-13T05:27:24.443Z,8.83
2022-12-13T05:30:03.834Z,10.53
2022-12-13T05:32:43.142Z,14.80
2022-12-13T05:35:14.207Z,7.37
2022-12-13T05:37:53.414Z,8.00
2022-12-13T05:40:22.903Z,9.60
2022-12-13T05:42:51.444Z,12.53
2022-12-13T05:45:21.552Z,10.67
2022-12-13T05:47:50.259Z,7.77
2022-12-13T05:50:19.002Z,6.30
2022-12-13T05:52:47.774Z,8.60
2022-12-13T05:55:16.378Z,6.87
2022-12-13T05:57:50.575Z,9.20
2022-12-13T06:00:28.696Z,12.97
2022-12-13T06:03:00.447Z,9.63
2022-12-13T06:05:29.857Z,8.97
2022-12-13T06:07:59.040Z,6.97
2022-12-13T06:10:34.655Z,9.37
2022-12-13T06:13:21.807Z,11.60
2022-12-13T06:16:01.008Z,8.27
2022-12-13T06:18:32.641Z,14.33
2022-12-13T06:21:02.823Z,8.27
2022-12-13T06:23:32.891Z,7.90
2022-12-13T06:26:04.469Z,12.17
2022-12-13T06:28:33.410Z,12.10
2022-12-13T06:31:03.597Z,11.87
2022-12-13T06:33:35.557Z,9.10
2022-12-13T06:36:04.979Z,11.83
2022-12-13T06:38:34.279Z,12.07
2022-12-13T06:41:13.110Z,13.87
2022-12-13T06:43:43.980Z,8.20
2022-12-13T06:46:14.669Z,9.50
2022-12-13T06:48:43.420Z,10.70
2022-12-13T06:51:12.101Z,12.70
2022-12-13T06:53:42.075Z,10.70
2022-12-13T06:56:12.681Z,12.87
2022-12-13T06:58:42.064Z,8.77
2022-12-13T07:01:24.165Z,10.73
2022-12-13T07:03:57.793Z,9.70
2022-12-13T07:06:27.351Z,12.33
2022-12-13T07:08:58.331Z,12.37
2022-12-13T07:11:29.668Z,11.47
2022-12-13T07:13:58.745Z,10.60
2022-12-13T07:16:29.634Z,11.70
2022-12-13T07:19:01.078Z,11.13
2022-12-13T07:21:31.166Z,10.00
2022-12-13T07:24:01.265Z,14.30
2022-12-13T07:26:29.596Z,8.57
2022-12-13T07:28:58.402Z,12.40
2022-12-13T07:31:28.418Z,12.43
2022-12-13T07:33:57.059Z,12.60
2022-12-13T07:36:25.709Z,11.77
2022-12-13T07:38:55.818Z,10.73
2022-12-13T07:41:25.083Z,9.93
2022-12-13T07:43:55.349Z,13.40
2022-12-13T07:46:33.520Z,13.07
2022-12-13T07:49:04.357Z,12.33
2022-12-13T07:51:34.966Z,15.23
2022-12-13T07:54:06.824Z,14.40
2022-12-13T07:56:35.634Z,14.13
2022-12-13T07:59:04.690Z,14.67
2022-12-13T08:01:34.541Z,10.13
2022-12-13T08:04:05.682Z,10.77
2022-12-13T08:06:37.184Z,11.20
2022-12-13T08:09:06.991Z,13.07
2022-12-13T08:11:35.703Z,9.17
2022-12-13T08:14:04.559Z,15.03
2022-12-13T08:16:33.165Z,9.77
2022-12-13T08:19:04.599Z,11.27
2022-12-13T08:21:56.164Z,14.77
2022-12-13T08:24:26.500Z,17.20
2022-12-13T08:26:55.030Z,16.53
2022-12-13T08:29:34.244Z,16.40
2022-12-13T08:32:05.146Z,10.90
2022-12-13T08:34:33.931Z,13.47
2022-12-13T08:37:05.104Z,14.73
2022-12-13T08:39:36.269Z,20.23
2022-12-13T08:42:17.020Z,14.63
2022-12-13T08:44:51.676Z,10.97
2022-12-13T08:47:23.165Z,11.20
2022-12-13T08:50:02.197Z,13.10
2022-12-13T08:52:39.227Z,10.00
2022-12-13T08:55:10.146Z,11.77
2022-12-13T08:57:38.543Z,10.13
2022-12-13T09:00:09.029Z,10.97
2022-12-13T09:02:38.383Z,11.20
2022-12-13T09:05:08.713Z,10.57
2022-12-13T09:07:39.624Z,12.43
2022-12-13T09:10:38.130Z,8.27
2022-12-13T09:13:01.639Z,12.77
2022-12-13T09:15:34.491Z,9.73
2022-12-13T09:18:05.227Z,10.77
2022-12-13T09:20:40.503Z,11.57
2022-12-13T09:23:14.179Z,8.73
2022-12-13T09:26:05.210Z,10.17
2022-12-13T09:28:35.286Z,9.70
2022-12-13T09:31:08.596Z,8.20
2022-12-13T09:33:41.314Z,11.63
2022-12-13T09:36:14.378Z,9.53
2022-12-13T09:38:44.247Z,7.67
2022-12-13T09:41:20.406Z,11.80
2022-12-13T09:44:01.343Z,6.80
2022-12-13T09:46:34.424Z,11.30
2022-12-13T09:49:22.947Z,6.03
2022-12-13T09:52:11.213Z,11.97
2022-12-13T09:54:48.829Z,7.83
2022-12-13T09:57:32.778Z,6.83
2022-12-13T10:00:03.543Z,7.83
2022-12-13T10:02:34.918Z,8.63
2022-12-13T10:05:22.594Z,9.33
2022-12-13T10:07:56.844Z,9.00
2022-12-13T10:10:27.188Z,7.10
2022-12-13T10:13:04.745Z,7.10
2022-12-13T10:15:37.408Z,7.53
2022-12-13T10:18:07.925Z,8.03
2022-12-13T10:20:36.351Z,6.73
2022-12-13T10:26:03.012Z,8.13
2022-12-13T10:28:34.377Z,9.57
2022-12-13T10:31:03.258Z,8.53
2022-12-13T10:33:34.789Z,7.37
2022-12-13T10:36:09.078Z,7.17
2022-12-13T10:38:39.608Z,9.83
2022-12-13T10:41:30.663Z,9.37
2022-12-13T10:44:25.341Z,13.17
2022-12-13T10:47:03.054Z,10.00
2022-12-13T10:49:40.947Z,6.80
2022-12-13T10:52:31.491Z,8.30
2022-12-13T10:55:23.550Z,7.33
2022-12-13T10:57:55.469Z,9.73
2022-12-13T11:00:40.835Z,10.60
2022-12-13T11:03:13.642Z,12.97
2022-12-13T11:05:42.378Z,13.67
2022-12-13T11:08:22.608Z,9.53
2022-12-13T11:10:59.528Z,14.30
2022-12-13T11:13:36.982Z,10.23
2022-12-13T11:16:17.843Z,14.00
2022-12-13T11:18:52.428Z,9.13
2022-12-13T11:21:26.431Z,11.73
2022-12-13T11:23:57.475Z,8.73
2022-12-13T11:26:33.778Z,9.70
2022-12-13T11:29:34.516Z,14.07
2022-12-13T11:32:12.168Z,6.53
2022-12-13T11:34:47.929Z,7.57
2022-12-13T11:37:26.640Z,13.07
2022-12-13T11:40:01.533Z,7.20
2022-12-13T11:42:34.597Z,7.60
2022-12-13T11:45:13.675Z,9.53
2022-12-13T11:48:01.740Z,8.47
2022-12-13T11:50:35.544Z,10.47
2022-12-13T11:53:24.125Z,10.10
2022-12-13T11:55:57.498Z,8.93
2022-12-13T11:59:02.331Z,7.73
2022-12-13T12:01:27.634Z,5.63
2022-12-13T12:04:02.331Z,8.03
2022-12-13T12:06:38.390Z,10.17
2022-12-13T12:09:10.666Z,10.37
2022-12-13T12:11:46.724Z,11.20
2022-12-13T12:14:20.697Z,9.13
2022-12-13T12:16:53.758Z,10.20
2022-12-13T12:19:24.941Z,10.30
2022-12-13T12:22:14.307Z,7.97
2022-12-13T12:25:00.247Z,9.13
2022-12-13T12:27:38.382Z,8.77
2022-12-13T12:30:22.671Z,9.97
2022-12-13T12:32:57.918Z,7.60
2022-12-13T12:35:46.422Z,10.90
2022-12-13T12:38:35.977Z,7.97
2022-12-13T12:41:25.668Z,8.73
2022-12-13T12:44:01.933Z,8.40
2022-12-13T12:50:06.860Z,12.90
2022-12-13T12:52:50.408Z,12.67
2022-12-13T12:55:38.230Z,10.10
2022-12-13T12:58:16.649Z,8.40
2022-12-13T13:00:54.648Z,7.63
2022-12-13T13:03:25.204Z,7.70
2022-12-13T13:06:02.663Z,11.53
2022-12-13T13:08:40.966Z,8.10
2022-12-13T13:11:24.542Z,13.10
2022-12-13T13:14:07.101Z,6.13
2022-12-13T13:16:38.502Z,9.50
2022-12-13T13:19:27.561Z,6.50
2022-12-13T13:22:01.400Z,7.93
2022-12-13T13:24:32.935Z,8.47
2022-12-13T13:27:29.271Z,9.03
2022-12-13T13:30:07.921Z,7.17
2022-12-13T13:32:40.759Z,9.73
2022-12-13T13:35:48.109Z,7.53
2022-12-13T13:38:53.428Z,7.53
2022-12-13T13:41:42.382Z,7.40
2022-12-13T13:44:54.526Z,11.23
2022-12-13T13:47:45.444Z,6.70
2022-12-13T13:50:53.988Z,7.50
2022-12-13T13:54:00.553Z,6.33
2022-12-13T13:57:01.200Z,11.00
2022-12-13T14:00:02.215Z,7.87
2022-12-13T14:03:33.196Z,6.77
2022-12-13T14:06:24.565Z,6.60
2022-12-13T14:09:23.001Z,11.50
2022-12-13T14:12:26.663Z,8.20
2022-12-13T14:15:40.405Z,8.97
2022-12-13T14:18:51.578Z,6.07
2022-12-13T14:21:27.741Z,7.63
2022-12-13T14:24:09.421Z,9.57
2022-12-13T14:26:51.579Z,9.70
2022-12-13T14:29:27.645Z,7.53
2022-12-13T14:31:56.655Z,9.63
2022-12-13T14:34:27.672Z,8.33
2022-12-13T14:36:57.872Z,8.57
2022-12-13T14:39:29.620Z,6.90
2022-12-13T14:42:00.375Z,5.03
2022-12-13T14:44:31.207Z,6.13
2022-12-13T14:47:02.509Z,9.13
2022-12-13T14:49:33.738Z,7.00
2022-12-13T14:52:07.158Z,7.40
2022-12-13T14:54:46.472Z,9.43
2022-12-13T14:57:18.290Z,6.53
2022-12-13T14:59:50.437Z,6.87
2022-12-13T15:02:30.742Z,7.17
2022-12-13T15:05:02.728Z,6.90
2022-12-13T15:07:35.753Z,6.23
2022-12-13T15:10:19.343Z,8.13
2022-12-13T15:12:49.177Z,9.50
2022-12-13T15:15:24.614Z,9.67
2022-12-13T15:18:08.095Z,11.03
2022-12-13T15:20:41.151Z,9.33
2022-12-13T15:23:16.136Z,7.17
2022-12-13T15:25:48.067Z,9.03
2022-12-13T15:28:21.644Z,7.87
2022-12-13T15:30:51.569Z,10.90
2022-12-13T15:33:26.358Z,9.20
2022-12-13T15:36:09.591Z,6.27
2022-12-13T15:38:41.267Z,13.20
2022-12-13T15:41:18.940Z,7.47
2022-12-13T15:43:50.134Z,13.13
2022-12-13T15:46:26.134Z,7.93
2022-12-13T15:48:56.398Z,10.53
2022-12-13T15:51:29.059Z,7.77
2022-12-13T15:54:08.344Z,10.70
2022-12-13T15:56:43.987Z,7.80
2022-12-13T15:59:27.360Z,6.80
2022-12-13T16:01:58.628Z,8.60
2022-12-13T16:04:29.759Z,13.57
2022-12-13T16:06:59.010Z,15.20
2022-12-13T16:09:30.936Z,14.70
2022-12-13T16:12:03.099Z,9.73
2022-12-13T16:14:48.934Z,14.23
2022-12-13T16:17:25.560Z,13.40
2022-12-13T16:19:57.325Z,13.47
2022-12-13T16:22:26.010Z,12.57
2022-12-13T16:24:56.414Z,9.53
2022-12-13T16:27:26.451Z,14.83
2022-12-13T16:29:54.829Z,10.77
2022-12-13T16:32:23.823Z,9.20
2022-12-13T16:34:52.411Z,13.83
2022-12-13T16:37:27.478Z,12.63
2022-12-13T16:39:56.428Z,10.87
2022-12-13T16:42:27.434Z,18.10
2022-12-13T16:45:40.756Z,12.23
2022-12-13T16:47:49.276Z,13.10
2022-12-13T16:50:19.803Z,13.30
2022-12-13T16:52:48.686Z,16.30
2022-12-13T16:55:17.507Z,15.23
2022-12-13T16:57:57.441Z,14.57
2022-12-13T17:00:26.838Z,11.87
2022-12-13T17:02:55.564Z,9.00
2022-12-13T17:05:26.879Z,12.33
2022-12-13T17:07:56.623Z,11.63
2022-12-13T17:10:25.361Z,9.30
2022-12-13T17:12:55.571Z,14.27
2022-12-13T17:15:23.913Z,12.23
2022-12-13T17:17:52.597Z,12.87
2022-12-13T17:20:21.137Z,9.93
2022-12-13T17:22:49.665Z,14.50
2022-12-13T17:25:18.378Z,14.30
2022-12-13T17:27:47.123Z,17.83
2022-12-13T17:30:18.906Z,17.63
2022-12-13T17:32:47.749Z,24.17
2022-12-13T17:35:18.563Z,14.13
2022-12-13T17:37:47.996Z,15.10
2022-12-13T17:40:18.246Z,11.97
2022-12-13T17:42:50.641Z,16.13
2022-12-13T17:45:21.609Z,16.13
2022-12-13T17:47:50.819Z,16.53
2022-12-13T17:50:19.190Z,22.73
2022-12-13T17:52:47.721Z,17.80
2022-12-13T17:55:18.491Z,12.03
2022-12-13T17:57:47.573Z,23.37
2022-12-13T18:00:17.132Z,13.70
2022-12-13T18:02:55.308Z,13.13
2022-12-13T18:05:29.123Z,15.37
2022-12-13T18:07:57.863Z,15.50
2022-12-13T18:10:29.746Z,9.17
2022-12-13T18:12:58.924Z,9.07
2022-12-13T18:15:27.426Z,8.33
2022-12-13T18:18:11.178Z,10.27
2022-12-13T18:20:40.216Z,9.30
2022-12-13T18:23:08.909Z,11.53
2022-12-13T18:25:37.475Z,12.33
2022-12-13T18:28:06.822Z,11.10
2022-12-13T18:30:35.121Z,11.77
2022-12-13T18:33:05.865Z,9.87
2022-12-13T18:35:35.094Z,11.70
2022-12-13T18:38:03.724Z,16.17
2022-12-13T18:40:33.257Z,10.00
2022-12-13T18:43:02.003Z,16.53
2022-12-13T18:45:30.299Z,11.53
2022-12-13T18:47:58.883Z,10.60
2022-12-13T18:50:28.550Z,16.40
2022-12-13T18:52:57.169Z,12.00
2022-12-13T18:55:25.406Z,13.03
2022-12-13T18:57:54.108Z,11.93
2022-12-13T19:00:24.191Z,11.33
2022-12-13T19:02:52.837Z,16.33
2022-12-13T19:05:22.836Z,17.07
2022-12-13T19:07:52.872Z,16.00
2022-12-13T19:10:21.212Z,15.83
2022-12-13T19:12:49.870Z,18.40
2022-12-13T19:15:19.047Z,17.80
2022-12-13T19:17:48.116Z,16.73
2022-12-13T19:20:17.317Z,19.17
2022-12-13T19:22:46.854Z,27.77
2022-12-13T19:25:17.052Z,24.90
2022-12-13T19:27:47.420Z,24.93
2022-12-13T19:30:17.754Z,21.33
2022-12-13T19:32:48.190Z,23.00
2022-12-13T19:35:16.987Z,20.77
2022-12-13T19:37:45.564Z,14.87
2022-12-13T19:40:13.989Z,18.07
2022-12-13T19:42:43.950Z,28.40
2022-12-13T19:45:12.259Z,18.70
2022-12-13T19:47:40.934Z,24.47
2022-12-13T19:50:11.089Z,18.50
2022-12-13T19:52:39.765Z,22.13
2022-12-13T19:55:08.467Z,22.07
2022-12-13T19:57:37.032Z,21.40
2022-12-13T20:00:08.155Z,20.50
2022-12-13T20:02:36.798Z,14.37
2022-12-13T20:05:06.329Z,18.50
2022-12-13T20:07:34.989Z,20.27
2022-12-13T20:10:03.257Z,23.23
2022-12-13T20:12:37.088Z,18.97
2022-12-13T20:15:11.256Z,18.40
2022-12-13T20:17:39.901Z,20.27
2022-12-13T20:20:08.716Z,25.57
2022-12-13T20:22:37.325Z,24.50
2022-12-13T20:25:07.071Z,19.03
2022-12-13T20:27:35.622Z,22.90
2022-12-13T20:30:04.948Z,17.50
2022-12-13T20:32:35.130Z,31.27
2022-12-13T20:35:03.370Z,23.67
2022-12-13T20:37:32.316Z,27.53
2022-12-13T20:40:00.873Z,20.20
2022-12-13T20:42:30.463Z,33.87
2022-12-13T20:44:59.964Z,48.90
2022-12-13T20:47:28.568Z,54.33
2022-12-13T20:49:58.269Z,44.20
2022-12-13T20:52:27.031Z,32.83
2022-12-13T20:54:55.565Z,36.03
2022-12-13T20:57:24.128Z,29.77
2022-12-13T20:59:52.426Z,25.77
2022-12-13T21:02:21.020Z,26.93
2022-12-13T21:04:49.533Z,24.50
2022-12-13T21:07:39.417Z,21.80
2022-12-13T21:10:08.578Z,27.60
2022-12-13T21:12:37.155Z,20.43
2022-12-13T21:15:05.991Z,24.47
2022-12-13T21:17:34.537Z,20.77
2022-12-13T21:20:02.871Z,19.83
2022-12-13T21:22:32.800Z,31.60
2022-12-13T21:25:01.564Z,29.20
2022-12-13T21:27:30.190Z,21.13
2022-12-13T21:29:58.371Z,22.00
2022-12-13T21:32:27.062Z,24.63
2022-12-13T21:34:55.356Z,22.40
2022-12-13T21:37:23.904Z,22.10
2022-12-13T21:39:53.610Z,18.47
2022-12-13T21:42:22.237Z,25.47
2022-12-13T21:44:50.748Z,21.83
2022-12-13T21:47:21.460Z,19.80
2022-12-13T21:49:49.748Z,19.90
2022-12-13T21:52:18.646Z,25.87
2022-12-13T21:54:46.958Z,21.63
2022-12-13T21:57:34.461Z,22.07
2022-12-13T22:00:02.711Z,18.00
2022-12-13T22:02:32.892Z,15.77
2022-12-13T22:05:01.234Z,19.77
2022-12-13T22:07:31.476Z,17.83
2022-12-13T22:10:01.299Z,17.87
2022-12-13T22:12:34.933Z,24.67
2022-12-13T22:15:05.018Z,19.70
2022-12-13T22:17:36.119Z,14.37
2022-12-13T22:20:06.549Z,16.93
2022-12-13T22:22:35.559Z,22.30
2022-12-13T22:25:03.964Z,17.83
2022-12-13T22:27:33.868Z,19.07
2022-12-13T22:30:02.103Z,21.97
2022-12-13T22:32:33.909Z,25.90
2022-12-13T22:35:02.326Z,22.73
2022-12-13T22:37:30.897Z,20.53
2022-12-13T22:39:59.192Z,16.87
2022-12-13T22:42:27.790Z,22.00
2022-12-13T22:44:57.490Z,18.50
2022-12-13T22:47:26.284Z,26.10
2022-12-13T22:49:54.522Z,26.17
2022-12-13T22:52:23.136Z,32.60
2022-12-13T22:54:51.558Z,25.77
2022-12-13T22:57:20.066Z,21.10
2022-12-13T22:59:48.307Z,27.47
2022-12-13T23:02:18.484Z,28.07
2022-12-13T23:04:47.078Z,28.57
2022-12-13T23:07:15.680Z,23.60
2022-12-13T23:09:44.149Z,25.17
2022-12-13T23:12:30.683Z,28.40
2022-12-13T23:14:59.063Z,20.80
2022-12-13T23:17:29.046Z,27.20
2022-12-13T23:19:57.503Z,19.90
2022-12-13T23:22:27.031Z,24.20
2022-12-13T23:24:55.633Z,25.53
2022-12-13T23:27:25.320Z,27.27
2022-12-13T23:29:53.646Z,23.60
2022-12-13T23:32:22.185Z,21.87
2022-12-13T23:34:52.351Z,23.23
2022-12-13T23:37:20.901Z,20.90
2022-12-13T23:39:49.207Z,27.43
2022-12-13T23:42:17.898Z,21.20
2022-12-13T23:44:46.238Z,17.23
2022-12-13T23:47:14.780Z,20.43
2022-12-13T23:49:43.390Z,18.80
2022-12-13T23:52:13.456Z,22.50
2022-12-13T23:54:41.727Z,15.27
2022-12-13T23:57:10.278Z,15.67
2022-12-13T23:59:38.747Z,22.50
